createdAt,value
2018-07-07T00:01:51.844Z,5.70
2018-07-07T00:04:24.734Z,5.60
2018-07-07T00:06:58.037Z,5.07
2018-07-07T00:09:31.354Z,4.90
2018-07-07T00:12:04.307Z,4.73
2018-07-07T00:14:37.170Z,5.30
2018-07-07T00:17:10.279Z,5.70
2018-07-07T00:19:43.574Z,5.30
2018-07-07T00:22:16.326Z,5.13
2018-07-07T00:24:49.453Z,5.37
2018-07-07T00:27:22.503Z,5.27
2018-07-07T00:29:55.932Z,5.10
2018-07-07T00:32:28.934Z,5.40
2018-07-07T00:35:00.659Z,5.40
2018-07-07T00:37:33.867Z,5.23
2018-07-07T00:40:07.159Z,5.90
2018-07-07T00:42:40.863Z,5.73
2018-07-07T00:45:12.208Z,6.40
2018-07-07T00:47:46.121Z,6.10
2018-07-07T00:50:19.422Z,6.40
2018-07-07T00:52:53.736Z,5.80
2018-07-07T00:55:27.333Z,6.13
2018-07-07T00:58:00.625Z,6.03
2018-07-07T01:00:42.419Z,6.10
2018-07-07T01:03:15.502Z,6.07
2018-07-07T01:05:50.513Z,6.37
2018-07-07T01:08:23.734Z,5.43
2018-07-07T01:10:56.710Z,6.40
2018-07-07T01:13:31.247Z,6.07
2018-07-07T01:16:04.841Z,6.30
2018-07-07T01:18:37.931Z,6.20
2018-07-07T01:21:11.228Z,7.20
2018-07-07T01:23:44.215Z,6.30
2018-07-07T01:26:17.066Z,7.03
2018-07-07T01:28:50.177Z,7.30
2018-07-07T01:31:23.271Z,6.90
2018-07-07T01:33:56.577Z,6.43
2018-07-07T01:36:29.655Z,6.80
2018-07-07T01:39:03.563Z,7.40
2018-07-07T01:41:36.760Z,7.30
2018-07-07T01:44:29.198Z,8.17
2018-07-07T01:47:04.951Z,6.63
2018-07-07T01:49:37.731Z,7.73
2018-07-07T01:52:12.049Z,7.37
2018-07-07T01:54:44.889Z,7.43
2018-07-07T01:57:17.920Z,7.27
2018-07-07T01:59:50.984Z,7.10
2018-07-07T02:02:24.345Z,6.93
2018-07-07T02:04:57.616Z,6.60
2018-07-07T02:07:31.508Z,7.03
2018-07-07T02:10:04.491Z,7.67
2018-07-07T02:12:38.492Z,7.03
2018-07-07T02:15:11.694Z,6.60
2018-07-07T02:18:00.571Z,7.40
2018-07-07T02:20:33.542Z,7.30
2018-07-07T02:23:06.618Z,6.10
2018-07-07T02:28:43.831Z,6.43
2018-07-07T02:31:16.919Z,7.07
2018-07-07T02:33:49.905Z,7.20
2018-07-07T02:36:22.965Z,6.90
2018-07-07T02:38:57.108Z,7.30
2018-07-07T02:42:14.350Z,7.53
2018-07-07T02:44:47.236Z,8.10
2018-07-07T02:47:20.741Z,8.07
2018-07-07T02:49:54.028Z,9.50
2018-07-07T02:52:28.014Z,8.50
2018-07-07T02:55:01.500Z,7.67
2018-07-07T02:57:34.607Z,7.87
2018-07-07T03:00:07.797Z,8.27
2018-07-07T03:02:40.888Z,8.10
2018-07-07T03:05:13.874Z,7.10
2018-07-07T03:07:46.875Z,6.97
2018-07-07T03:10:15.797Z,7.63
2018-07-07T03:12:57.375Z,6.97
2018-07-07T03:15:33.773Z,7.03
2018-07-07T03:25:40.635Z,7.07
2018-07-07T03:28:11.982Z,6.83
2018-07-07T03:30:47.153Z,7.03
2018-07-07T03:33:42.533Z,6.97
2018-07-07T03:36:12.445Z,6.53
2018-07-07T03:42:28.543Z,7.33
2018-07-07T03:44:58.169Z,6.17
2018-07-07T03:47:33.877Z,6.33
2018-07-07T03:50:10.426Z,6.60
2018-07-07T03:56:04.390Z,6.70
2018-07-07T03:58:53.503Z,6.47
2018-07-07T04:12:14.127Z,7.00
2018-07-07T04:14:42.222Z,7.47
2018-07-07T04:17:11.420Z,6.60
2018-07-07T04:19:39.389Z,6.73
2018-07-07T04:22:07.192Z,6.70
2018-07-07T04:24:35.036Z,7.77
2018-07-07T04:27:03.261Z,7.57
2018-07-07T04:29:32.241Z,6.73
2018-07-07T04:32:00.228Z,6.30
2018-07-07T04:34:31.913Z,6.53
2018-07-07T04:37:02.787Z,6.83
2018-07-07T04:39:32.886Z,6.30
2018-07-07T04:42:06.464Z,6.03
2018-07-07T05:15:01.493Z,5.87
2018-07-07T05:17:32.333Z,6.73
2018-07-07T05:20:02.334Z,5.37
2018-07-07T05:22:32.233Z,5.40
2018-07-07T05:25:03.820Z,6.20
2018-07-07T05:27:33.452Z,5.80
2018-07-07T05:30:01.231Z,8.00
2018-07-07T05:32:33.500Z,5.03
2018-07-07T05:35:07.877Z,5.67
2018-07-07T05:37:40.772Z,5.63
2018-07-07T05:40:14.669Z,5.57
2018-07-07T05:42:47.600Z,5.77
2018-07-07T05:45:21.983Z,5.83
2018-07-07T05:47:53.733Z,6.00
2018-07-07T05:50:27.438Z,5.50
2018-07-07T05:53:00.213Z,5.93
2018-07-07T05:55:32.798Z,5.73
2018-07-07T05:58:03.632Z,4.83
2018-07-07T06:00:33.856Z,4.73
2018-07-07T06:03:06.927Z,4.47
2018-07-07T06:05:39.626Z,4.40
2018-07-07T06:08:11.177Z,4.33
2018-07-07T06:10:44.784Z,4.70
2018-07-07T06:13:17.766Z,4.47
2018-07-07T06:15:48.909Z,4.40
2018-07-07T06:18:23.712Z,4.23
2018-07-07T06:21:00.109Z,4.30
2018-07-07T06:23:28.605Z,4.43
2018-07-07T06:25:56.404Z,4.93
2018-07-07T06:28:24.280Z,4.43
2018-07-07T06:30:52.285Z,4.47
2018-07-07T06:33:20.078Z,4.60
2018-07-07T06:59:15.598Z,4.40
2018-07-07T07:01:43.517Z,4.60
2018-07-07T07:04:12.137Z,5.10
2018-07-07T07:06:40.057Z,4.60
2018-07-07T07:09:09.169Z,5.43
2018-07-07T07:11:37.065Z,4.70
2018-07-07T07:14:05.042Z,4.40
2018-07-07T07:16:32.902Z,5.13
2018-07-07T07:19:01.013Z,4.73
2018-07-07T07:21:29.296Z,5.47
2018-07-07T07:23:57.063Z,6.03
2018-07-07T07:26:24.874Z,5.20
2018-07-07T07:28:52.704Z,5.20
2018-07-07T07:31:20.489Z,5.13
2018-07-07T07:33:51.713Z,5.27
2018-07-07T07:36:45.729Z,5.43
2018-07-07T07:39:17.239Z,6.67
2018-07-07T07:41:51.344Z,5.30
2018-07-07T07:44:23.422Z,7.63
2018-07-07T07:46:53.939Z,4.73
2018-07-07T07:49:27.947Z,4.97
2018-07-07T07:51:59.208Z,5.10
2018-07-07T07:54:27.498Z,4.97
2018-07-07T08:00:16.649Z,4.70
2018-07-07T08:02:44.446Z,4.80
2018-07-07T08:05:12.242Z,5.60
2018-07-07T08:07:40.084Z,5.17
2018-07-07T08:10:18.175Z,5.55
2018-07-07T08:12:51.261Z,6.13
2018-07-07T08:15:24.555Z,5.10
2018-07-07T08:17:58.058Z,5.70
2018-07-07T08:20:34.420Z,5.37
2018-07-07T08:23:07.817Z,7.57
2018-07-07T08:25:42.954Z,6.83
2018-07-07T08:28:16.048Z,6.47
2018-07-07T08:30:49.212Z,7.10
2018-07-07T08:33:23.553Z,6.67
2018-07-07T08:35:57.053Z,6.37
2018-07-07T08:38:31.132Z,6.90
2018-07-07T08:41:05.377Z,6.15
2018-07-07T08:43:40.696Z,6.45
2018-07-07T08:46:14.224Z,6.80
2018-07-07T08:48:47.522Z,6.58
2018-07-07T08:51:21.835Z,6.33
2018-07-07T08:53:53.287Z,6.80
2018-07-07T08:56:25.353Z,6.70
2018-07-07T09:01:49.456Z,6.37
2018-07-07T09:04:20.080Z,5.83
2018-07-07T09:06:53.480Z,5.58
2018-07-07T09:09:27.977Z,5.30
2018-07-07T09:12:32.228Z,5.12
2018-07-07T09:18:21.329Z,6.58
2018-07-07T09:20:49.821Z,5.47
2018-07-07T09:23:17.700Z,4.90
2018-07-07T09:25:59.820Z,5.87
2018-07-07T09:29:19.541Z,5.00
2018-07-07T09:36:06.488Z,5.05
2018-07-07T09:38:40.201Z,4.85
2018-07-07T09:44:39.141Z,5.28
2018-07-07T09:47:14.546Z,4.70
2018-07-07T09:49:47.944Z,4.75
2018-07-07T09:52:19.705Z,5.08
2018-07-07T09:58:18.062Z,5.83
2018-07-07T10:00:45.930Z,5.62
2018-07-07T10:03:14.049Z,5.10
2018-07-07T10:05:53.274Z,5.00
2018-07-07T10:08:24.352Z,5.30
2018-07-07T10:10:52.359Z,5.12
2018-07-07T10:13:20.216Z,5.37
2018-07-07T10:19:18.950Z,5.50
2018-07-07T10:21:46.820Z,5.15
2018-07-07T10:24:14.716Z,5.28
2018-07-07T10:26:42.609Z,5.28
2018-07-07T10:29:17.450Z,6.42
2018-07-07T10:31:47.254Z,5.83
2018-07-07T10:34:25.749Z,5.60
2018-07-07T10:36:53.534Z,5.47
2018-07-07T10:39:21.426Z,6.67
2018-07-07T10:41:49.309Z,6.17
2018-07-07T10:44:17.134Z,5.33
2018-07-07T10:46:44.962Z,5.58
2018-07-07T10:49:12.742Z,5.95
2018-07-07T10:51:40.557Z,5.67
2018-07-07T10:54:08.564Z,5.50
2018-07-07T10:56:36.454Z,6.28
2018-07-07T10:59:08.333Z,5.83
2018-07-07T11:01:36.205Z,6.45
2018-07-07T11:04:04.077Z,5.37
2018-07-07T11:06:32.017Z,5.65
2018-07-07T11:09:00.101Z,5.47
2018-07-07T11:11:27.977Z,5.70
2018-07-07T11:13:56.621Z,5.35
2018-07-07T11:16:24.421Z,5.22
2018-07-07T11:18:54.776Z,5.83
2018-07-07T11:21:24.554Z,5.10
2018-07-07T11:24:00.015Z,5.35
2018-07-07T11:26:32.779Z,6.15
2018-07-07T11:29:00.743Z,5.40
2018-07-07T11:31:28.730Z,5.05
2018-07-07T11:33:56.657Z,5.50
2018-07-07T11:36:25.744Z,5.37
2018-07-07T11:38:53.586Z,5.05
2018-07-07T11:41:22.421Z,6.12
2018-07-07T11:43:53.100Z,4.83
2018-07-07T11:46:20.993Z,5.10
2018-07-07T11:48:49.085Z,5.60
2018-07-07T11:51:17.042Z,5.37
2018-07-07T11:53:44.832Z,5.45
2018-07-07T11:56:12.682Z,5.10
2018-07-07T11:58:41.781Z,4.50
2018-07-07T12:01:09.629Z,4.87
2018-07-07T12:03:37.642Z,5.08
2018-07-07T12:06:07.322Z,5.83
2018-07-07T12:08:35.126Z,4.67
2018-07-07T12:11:02.956Z,4.58
2018-07-07T12:13:30.742Z,4.70
2018-07-07T12:15:58.652Z,4.33
2018-07-07T12:18:26.436Z,5.03
2018-07-07T12:20:54.537Z,4.37
2018-07-07T12:23:22.380Z,5.62
2018-07-07T12:25:50.201Z,4.33
2018-07-07T12:28:17.984Z,4.50
2018-07-07T12:37:46.101Z,5.67
2018-07-07T12:40:13.986Z,4.12
2018-07-07T12:42:41.801Z,5.37
2018-07-07T12:45:09.764Z,6.20
2018-07-07T12:47:37.593Z,4.00
2018-07-07T12:50:05.536Z,5.90
2018-07-07T12:52:33.362Z,4.00
2018-07-07T12:55:01.159Z,3.67
2018-07-07T12:57:28.961Z,4.40
2018-07-07T12:59:56.737Z,4.70
2018-07-07T13:02:24.653Z,4.17
2018-07-07T13:04:52.481Z,4.40
2018-07-07T13:07:20.298Z,4.10
2018-07-07T13:09:48.095Z,4.23
2018-07-07T13:12:15.909Z,3.70
2018-07-07T13:14:43.749Z,3.97
2018-07-07T13:17:11.561Z,3.60
2018-07-07T13:19:39.416Z,4.07
2018-07-07T13:22:07.293Z,3.90
2018-07-07T13:24:42.265Z,3.80
2018-07-07T13:27:10.074Z,4.30
2018-07-07T13:29:37.864Z,4.03
2018-07-07T13:32:07.985Z,5.53
2018-07-07T13:34:36.130Z,3.83
2018-07-07T13:37:04.090Z,4.10
2018-07-07T13:39:31.947Z,4.20
2018-07-07T13:41:59.965Z,4.03
2018-07-07T13:44:27.716Z,4.67
2018-07-07T13:46:55.545Z,3.57
2018-07-07T13:49:23.566Z,4.00
2018-07-07T13:51:51.388Z,3.53
2018-07-07T13:54:19.210Z,4.40
2018-07-07T13:56:47.006Z,3.30
2018-07-07T13:59:14.801Z,3.50
2018-07-07T14:01:42.556Z,3.47
2018-07-07T14:04:13.025Z,2.83
2018-07-07T14:06:40.818Z,3.10
2018-07-07T14:09:09.199Z,3.00
2018-07-07T14:11:37.027Z,4.30
2018-07-07T14:14:04.943Z,3.10
2018-07-07T14:16:32.733Z,3.30
2018-07-07T14:19:00.585Z,3.20
2018-07-07T14:21:28.397Z,4.00
2018-07-07T14:23:56.162Z,3.70
2018-07-07T14:26:24.629Z,4.47
2018-07-07T14:28:52.465Z,3.00
2018-07-07T14:31:20.296Z,3.20
2018-07-07T14:33:52.069Z,5.77
2018-07-07T14:36:24.438Z,3.40
2018-07-07T14:38:57.732Z,4.03
2018-07-07T14:41:28.442Z,4.43
2018-07-07T14:44:01.352Z,3.30
2018-07-07T14:46:33.518Z,3.40
2018-07-07T14:49:07.124Z,3.20
2018-07-07T14:51:40.929Z,11.63
2018-07-07T14:54:15.146Z,3.17
2018-07-07T14:56:48.529Z,3.33
2018-07-07T14:59:21.632Z,3.33
2018-07-07T15:01:55.216Z,3.20
2018-07-07T15:04:29.343Z,3.80
2018-07-07T15:07:02.944Z,4.00
2018-07-07T15:09:35.697Z,3.10
2018-07-07T15:12:08.586Z,2.93
2018-07-07T15:14:36.946Z,3.50
2018-07-07T15:17:04.783Z,3.20
2018-07-07T15:19:33.098Z,3.30
2018-07-07T15:22:01.045Z,3.67
2018-07-07T15:24:28.866Z,3.57
2018-07-07T15:26:56.704Z,3.70
2018-07-07T15:29:24.681Z,3.23
2018-07-07T15:31:58.005Z,3.57
2018-07-07T15:34:57.450Z,3.43
2018-07-07T15:37:26.277Z,3.93
2018-07-07T15:39:54.068Z,3.60
2018-07-07T15:42:21.878Z,3.80
2018-07-07T15:44:49.893Z,4.40
2018-07-07T15:47:18.813Z,3.90
2018-07-07T15:49:46.627Z,4.23
2018-07-07T15:52:14.393Z,3.87
2018-07-07T15:54:43.481Z,3.50
2018-07-07T15:57:11.319Z,3.67
2018-07-07T15:59:39.182Z,3.80
2018-07-07T16:02:07.006Z,4.67
2018-07-07T16:04:34.761Z,3.80
2018-07-07T16:07:02.551Z,4.10
2018-07-07T16:09:39.640Z,5.60
2018-07-07T16:12:07.470Z,3.60
2018-07-07T16:14:35.241Z,4.57
2018-07-07T16:17:03.081Z,4.70
2018-07-07T16:19:30.889Z,4.20
2018-07-07T16:21:58.815Z,4.50
2018-07-07T16:24:27.993Z,4.20
2018-07-07T16:26:55.830Z,3.93
2018-07-07T16:29:23.749Z,4.13
2018-07-07T16:31:55.148Z,4.87
2018-07-07T16:34:27.515Z,4.40
2018-07-07T16:36:57.530Z,4.10
2018-07-07T16:39:30.316Z,4.00
2018-07-07T16:42:04.117Z,4.40
2018-07-07T16:44:36.185Z,3.70
2018-07-07T16:47:08.331Z,5.17
2018-07-07T16:49:39.701Z,4.07
2018-07-07T16:52:12.380Z,4.70
2018-07-07T16:54:47.833Z,4.47
2018-07-07T16:57:21.427Z,3.90
2018-07-07T16:59:56.945Z,4.07
2018-07-07T17:02:31.090Z,4.23
2018-07-07T17:05:05.686Z,5.07
2018-07-07T17:07:40.648Z,4.73
2018-07-07T17:10:13.635Z,4.60
2018-07-07T17:12:47.443Z,6.60
2018-07-07T17:15:20.225Z,4.27
2018-07-07T17:17:53.897Z,4.33
2018-07-07T17:20:28.696Z,4.10
2018-07-07T17:23:05.607Z,4.70
2018-07-07T17:25:35.896Z,4.30
2018-07-07T17:28:14.406Z,4.60
2018-07-07T17:50:48.065Z,5.07
2018-07-07T17:53:18.488Z,4.57
2018-07-07T17:59:50.449Z,3.83
2018-07-07T18:09:08.124Z,4.63
2018-07-07T18:11:35.990Z,4.23
2018-07-07T18:14:08.760Z,4.20
2018-07-07T18:16:42.560Z,4.93
2018-07-07T18:19:18.378Z,4.63
2018-07-07T18:21:52.440Z,4.80
2018-07-07T18:24:26.034Z,4.60
2018-07-07T18:27:02.746Z,4.70
2018-07-07T18:29:34.081Z,4.40
2018-07-07T18:32:04.578Z,5.03
2018-07-07T18:34:35.282Z,5.10
2018-07-07T18:37:05.944Z,6.83
2018-07-07T18:39:38.214Z,5.80
2018-07-07T18:45:41.430Z,4.80
2018-07-07T18:48:12.450Z,4.73
2018-07-07T18:50:45.458Z,5.03
2018-07-07T18:53:21.129Z,5.73
2018-07-07T18:55:55.635Z,5.83
2018-07-07T18:58:30.158Z,7.37
2018-07-07T19:01:03.960Z,6.47
2018-07-07T19:03:36.742Z,6.43
2018-07-07T19:06:55.815Z,5.00
2018-07-07T19:23:21.629Z,5.80
2018-07-07T19:29:20.950Z,6.83
2018-07-07T19:31:58.135Z,8.40
2018-07-07T19:34:34.808Z,5.77
2018-07-07T19:37:56.514Z,6.03
2018-07-07T19:41:02.618Z,6.57
2018-07-07T19:51:10.379Z,6.30
2018-07-07T20:27:58.631Z,6.57
2018-07-07T20:30:35.617Z,6.37
2018-07-07T20:33:12.627Z,5.93
2018-07-07T20:35:40.429Z,6.50
2018-07-07T20:38:08.268Z,7.17
2018-07-07T20:40:36.057Z,5.53
2018-07-07T20:43:04.564Z,7.70
2018-07-07T20:45:33.014Z,5.73
2018-07-07T20:48:00.812Z,6.73
2018-07-07T20:50:28.577Z,5.77
2018-07-07T20:52:56.342Z,6.07
2018-07-07T20:55:24.301Z,7.60
2018-07-07T20:57:52.173Z,6.50
2018-07-07T21:00:19.973Z,6.23
2018-07-07T21:02:47.885Z,6.40
2018-07-07T21:05:15.705Z,6.17
2018-07-07T21:07:43.513Z,6.27
2018-07-07T21:10:11.285Z,6.70
2018-07-07T21:12:39.078Z,6.23
2018-07-07T21:15:06.941Z,6.70
2018-07-07T21:17:34.733Z,5.73
2018-07-07T21:20:02.526Z,5.77
2018-07-07T21:22:30.361Z,6.17
2018-07-07T21:24:58.153Z,6.00
2018-07-07T21:27:30.888Z,7.23
2018-07-07T21:30:04.794Z,6.10
2018-07-07T21:32:39.390Z,5.70
2018-07-07T21:35:12.512Z,5.73
2018-07-07T21:37:46.110Z,7.77
2018-07-07T21:40:19.100Z,6.10
2018-07-07T21:42:51.685Z,7.27
2018-07-07T21:45:25.177Z,7.43
2018-07-07T21:47:58.446Z,6.10
2018-07-07T21:50:31.352Z,6.37
2018-07-07T21:53:05.466Z,6.20
2018-07-07T21:55:39.071Z,5.87
2018-07-07T21:58:18.099Z,6.23
2018-07-07T22:01:04.907Z,7.70
2018-07-07T22:03:46.234Z,7.17
2018-07-07T22:10:06.661Z,6.10
2018-07-07T22:12:34.446Z,7.00
2018-07-07T22:15:11.195Z,6.50
2018-07-07T22:17:46.757Z,6.87
2018-07-07T22:20:37.541Z,6.27
2018-07-07T22:29:41.584Z,6.60
2018-07-07T22:32:14.896Z,5.80
2018-07-07T22:34:43.001Z,5.77
2018-07-07T22:37:11.001Z,5.80
2018-07-07T22:39:40.162Z,9.97
2018-07-07T22:42:17.903Z,6.23
2018-07-07T22:44:46.737Z,6.63
2018-07-07T22:47:14.513Z,6.83
2018-07-07T22:49:42.397Z,5.70
2018-07-07T22:52:10.564Z,6.00
2018-07-07T22:54:38.450Z,5.80
2018-07-07T22:57:18.842Z,7.10
2018-07-07T22:59:46.689Z,6.37
2018-07-07T23:02:14.489Z,7.30
2018-07-07T23:04:45.122Z,5.70
2018-07-07T23:07:17.803Z,5.83
2018-07-07T23:09:49.764Z,7.43
2018-07-07T23:12:22.645Z,6.37
2018-07-07T23:14:55.095Z,6.00
2018-07-07T23:17:28.905Z,5.97
2018-07-07T23:19:59.767Z,5.93
2018-07-07T23:22:52.419Z,6.10
2018-07-07T23:25:24.941Z,6.63
2018-07-07T23:27:58.183Z,5.50
2018-07-07T23:30:31.962Z,6.43
2018-07-07T23:33:07.723Z,5.57
2018-07-07T23:35:40.419Z,5.90
2018-07-07T23:38:13.402Z,6.10
2018-07-07T23:40:46.495Z,6.30
2018-07-07T23:43:20.305Z,6.30
2018-07-07T23:45:53.903Z,6.23
2018-07-07T23:48:27.712Z,6.57
2018-07-07T23:51:01.618Z,6.20
2018-07-07T23:53:35.297Z,5.90
2018-07-07T23:56:09.128Z,6.67
2018-07-07T23:58:42.220Z,8.37
